Map

Track Data

SID SEASON NUMBER BASIN SUBBASIN NAME ISO_TIME NATURE LAT LON WMO_WIND WMO_PRES WMO_AGENCY TRACK_TYPE DIST2LAND LANDFALL IFLAG USA_AGENCY USA_ATCF_ID USA_LAT USA_LON USA_RECORD USA_STATUS USA_WIND USA_PRES USA_SSHS USA_R34_NE USA_R34_SE USA_R34_SW USA_R34_NW USA_R50_NE USA_R50_SE USA_R50_SW USA_R50_NW USA_R64_NE USA_R64_SE USA_R64_SW USA_R64_NW USA_POCI USA_ROCI USA_RMW USA_EYE TOKYO_LAT TOKYO_LON TOKYO_GRADE TOKYO_WIND TOKYO_PRES TOKYO_R50_DIR TOKYO_R50_LONG TOKYO_R50_SHORT TOKYO_R30_DIR TOKYO_R30_LONG TOKYO_R30_SHORT TOKYO_LAND CMA_LAT CMA_LON CMA_CAT CMA_WIND CMA_PRES HKO_LAT HKO_LON HKO_CAT HKO_WIND HKO_PRES NEWDELHI_LAT NEWDELHI_LON NEWDELHI_GRADE NEWDELHI_WIND NEWDELHI_PRES NEWDELHI_CI NEWDELHI_DP NEWDELHI_POCI REUNION_LAT REUNION_LON REUNION_TYPE REUNION_WIND REUNION_PRES REUNION_TNUM REUNION_CI REUNION_RMW REUNION_R34_NE REUNION_R34_SE REUNION_R34_SW REUNION_R34_NW REUNION_R50_NE REUNION_R50_SE REUNION_R50_SW REUNION_R50_NW REUNION_R64_NE REUNION_R64_SE REUNION_R64_SW REUNION_R64_NW BOM_LAT BOM_LON BOM_TYPE BOM_WIND BOM_PRES BOM_TNUM BOM_CI BOM_RMW BOM_R34_NE BOM_R34_SE BOM_R34_SW BOM_R34_NW BOM_R50_NE BOM_R50_SE BOM_R50_SW BOM_R50_NW BOM_R64_NE BOM_R64_SE BOM_R64_SW BOM_R64_NW BOM_ROCI BOM_POCI BOM_EYE BOM_POS_METHOD BOM_PRES_METHOD NADI_LAT NADI_LON NADI_CAT NADI_WIND NADI_PRES WELLINGTON_LAT WELLINGTON_LON WELLINGTON_WIND WELLINGTON_PRES DS824_LAT DS824_LON DS824_STAGE DS824_WIND DS824_PRES TD9636_LAT TD9636_LON TD9636_STAGE TD9636_WIND TD9636_PRES TD9635_LAT TD9635_LON TD9635_WIND TD9635_PRES TD9635_ROCI NEUMANN_LAT NEUMANN_LON NEUMANN_CLASS NEUMANN_WIND NEUMANN_PRES MLC_LAT MLC_LON MLC_CLASS MLC_WIND MLC_PRES USA_GUST BOM_GUST BOM_GUST_PER REUNION_GUST REUNION_GUST_PER USA_SEAHGT USA_SEARAD_NE USA_SEARAD_SE USA_SEARAD_SW USA_SEARAD_NW STORM_SPEED STORM_DIR
1940266N29311 1940 68 NA NA NOT_NAMED 1940-09-22 00:00:00 TS 29.3000 -49.4000 50 hurdat_atl main 1954 1952 O_____________ hurdat_atl AL071940 29.3000 -49.4000 TS 50 0 15 84
1940266N29311 1940 68 NA NA NOT_NAMED 1940-09-22 03:00:00 TS 29.3837 -48.5205 main 1957 1957 P_____________ AL071940 29.3837 -48.5205 TS 52 0 16 83
1940266N29311 1940 68 NA NA NOT_NAMED 1940-09-22 06:00:00 TS 29.5000 -47.6000 55 hurdat_atl main 1964 1960 O_____________ hurdat_atl AL071940 29.5000 -47.6000 TS 55 0 17 80
1940266N29311 1940 68 NA NA NOT_NAMED 1940-09-22 09:00:00 TS 29.6890 -46.6011 main 1966 1960 P_____________ AL071940 29.6890 -46.6011 TS 57 0 19 75
1940266N29311 1940 68 NA NA NOT_NAMED 1940-09-22 12:00:00 TS 30.0000 -45.5000 60 hurdat_atl main 1963 1955 O_____________ hurdat_atl AL071940 30.0000 -45.5000 TS 60 0 21 71
1940266N29311 1940 68 NA NA NOT_NAMED 1940-09-22 15:00:00 TS 30.3861 -44.3136 main 1958 1939 P_____________ AL071940 30.3861 -44.3136 TS 62 0 24 65
1940266N29311 1940 68 NA NA NOT_NAMED 1940-09-22 18:00:00 TS 31.0000 -43.0000 65 hurdat_atl main 1943 1910 O_____________ hurdat_atl AL071940 31.0000 -43.0000 HU 65 1 28 57
1940266N29311 1940 68 NA NA NOT_NAMED 1940-09-22 21:00:00 TS 31.9092 -41.5519 main 1910 1879 P_____________ AL071940 31.9092 -41.5519 HU 70 1 32 52
1940266N29311 1940 68 NA NA NOT_NAMED 1940-09-23 00:00:00 TS 33.0000 -40.0000 75 hurdat_atl main 1879 1858 O_____________ hurdat_atl AL071940 33.0000 -40.0000 HU 75 1 35 50
1940266N29311 1940 68 NA NA NOT_NAMED 1940-09-23 03:00:00 TS 34.1146 -38.3851 main 1864 1857 P_____________ AL071940 34.1146 -38.3851 HU 77 1 34 50
1940266N29311 1940 68 NA NA NOT_NAMED 1940-09-23 06:00:00 TS 35.2000 -36.8000 80 hurdat_atl main 1862 1860 O_____________ hurdat_atl AL071940 35.2000 -36.8000 HU 80 1 33 50
1940266N29311 1940 68 NA NA NOT_NAMED 1940-09-23 09:00:00 TS 36.2178 -35.3472 main 1876 1868 P_____________ AL071940 36.2178 -35.3472 HU 82 1 29 51
1940266N29311 1940 68 NA NA NOT_NAMED 1940-09-23 12:00:00 TS 37.0000 -34.0000 85 hurdat_atl main 1872 1800 O_____________ hurdat_atl AL071940 37.0000 -34.0000 HU 85 2 24 61
1940266N29311 1940 68 NA NA NOT_NAMED 1940-09-23 15:00:00 TS 37.4110 -32.7004 main 1792 1721 P_____________ AL071940 37.4110 -32.7004 HU 85 2 21 73
1940266N29311 1940 68 NA NA NOT_NAMED 1940-09-23 18:00:00 TS 37.6000 -31.5000 85 hurdat_atl main 1713 1646 O_____________ hurdat_atl AL071940 37.6000 -31.5000 HU 85 2 19 79
1940266N29311 1940 68 NA NA NOT_NAMED 1940-09-23 21:00:00 TS 37.7862 -30.3616 main 1646 1584 P_____________ AL071940 37.7862 -30.3616 HU 85 2 18 80
1940266N29311 1940 68 NA NA NOT_NAMED 1940-09-24 00:00:00 TS 37.9000 -29.3000 85 hurdat_atl main 1577 1517 O_____________ hurdat_atl AL071940 37.9000 -29.3000 HU 85 2 17 84
1940266N29311 1940 68 NA NA NOT_NAMED 1940-09-24 03:00:00 TS 37.9727 -28.2171 main 1511 1454 P_____________ AL071940 37.9727 -28.2171 HU 82 1 16 86
1940266N29311 1940 68 NA NA NOT_NAMED 1940-09-24 06:00:00 TS 38.0000 -27.3000 80 hurdat_atl main 1454 1418 O_____________ hurdat_atl AL071940 38.0000 -27.3000 HU 80 1 13 89
1940266N29311 1940 68 NA NA NOT_NAMED 1940-09-24 09:00:00 TS 37.9991 -26.6222 main 1412 1388 P_____________ AL071940 37.9991 -26.6222 HU 80 1 9 90
1940266N29311 1940 68 NA NA NOT_NAMED 1940-09-24 12:00:00 TS 38.0000 -26.2000 80 hurdat_atl main 1388 1376 O_____________ hurdat_atl AL071940 38.0000 -26.2000 HU 80 1 5 86
1940266N29311 1940 68 NA NA NOT_NAMED 1940-09-24 15:00:00 TS 38.0346 -25.9601 main 1376 1371 P_____________ AL071940 38.0346 -25.9601 HU 77 1 3 67
1940266N29311 1940 68 NA NA NOT_NAMED 1940-09-24 18:00:00 TS 38.1000 -25.9000 75 hurdat_atl main 1379 1379 O_____________ hurdat_atl AL071940 38.1000 -25.9000 HU 75 1 2 20
1940266N29311 1940 68 NA NA NOT_NAMED 1940-09-24 21:00:00 TS 38.1924 -25.8900 main 1388 1388 P_____________ AL071940 38.1924 -25.8900 HU 72 1 2 337
1940266N29311 1940 68 NA NA NOT_NAMED 1940-09-25 00:00:00 TS 38.3000 -26.0000 70 hurdat_atl main 1402 1402 O_____________ hurdat_atl AL071940 38.3000 -26.0000 HU 70 1 3 312
1940266N29311 1940 68 NA NA NOT_NAMED 1940-09-25 03:00:00 TS 38.3998 -26.1826 main 1422 1422 P_____________ AL071940 38.3998 -26.1826 HU 67 1 4 297
1940266N29311 1940 68 NA NA NOT_NAMED 1940-09-25 06:00:00 TS 38.5000 -26.5000 65 984 hurdat_atl main 1447 1447 O_____________ hurdat_atl AL071940 38.5000 -26.5000 HU 65 984 1 6 288
1940266N29311 1940 68 NA NA NOT_NAMED 1940-09-25 09:00:00 TS 38.6001 -26.9550 main 1484 1484 P_____________ AL071940 38.6001 -26.9550 HU 65 1 8 284
1940266N29311 1940 68 NA NA NOT_NAMED 1940-09-25 12:00:00 TS 38.7000 -27.5000 65 hurdat_atl main 1522 1522 O_____________ hurdat_atl AL071940 38.7000 -27.5000 HU 65 1 9 283
1940266N29311 1940 68 NA NA NOT_NAMED 1940-09-25 15:00:00 TS 38.7998 -28.0426 main 1560 1560 P_____________ AL071940 38.7998 -28.0426 HU 62 0 9 283
1940266N29311 1940 68 NA NA NOT_NAMED 1940-09-25 18:00:00 TS 38.9000 -28.6000 60 hurdat_atl main 1605 1605 O_____________ hurdat_atl AL071940 38.9000 -28.6000 TS 60 0 9 283
1940266N29311 1940 68 NA NA NOT_NAMED 1940-09-25 21:00:00 TS 38.9995 -29.1352 main 1644 1644 P_____________ AL071940 38.9995 -29.1352 TS 57 0 9 283
1940266N29311 1940 68 NA NA NOT_NAMED 1940-09-26 00:00:00 TS 39.1000 -29.7000 55 hurdat_atl main 1690 1690 O_____________ hurdat_atl AL071940 39.1000 -29.7000 TS 55 0 9 282
1940266N29311 1940 68 NA NA NOT_NAMED 1940-09-26 03:00:00 TS 39.1996 -30.3202 main 1736 1736 P_____________ AL071940 39.1996 -30.3202 TS 55 0 10 281
1940266N29311 1940 68 NA NA NOT_NAMED 1940-09-26 06:00:00 TS 39.3000 -31.0000 55 hurdat_atl main 1789 1789 O_____________ hurdat_atl AL071940 39.3000 -31.0000 TS 55 0 11 280
1940266N29311 1940 68 NA NA NOT_NAMED 1940-09-26 09:00:00 TS 39.3995 -31.7202 main 1843 1836 P_____________ AL071940 39.3995 -31.7202 TS 55 0 12 280
1940266N29311 1940 68 NA NA NOT_NAMED 1940-09-26 12:00:00 TS 39.5000 -32.5000 55 hurdat_atl main 1836 1774 O_____________ hurdat_atl AL071940 39.5000 -32.5000 TS 55 0 12 280
1940266N29311 1940 68 NA NA NOT_NAMED 1940-09-26 15:00:00 TS 39.6067 -33.3125 main 1774 1711 P_____________ AL071940 39.6067 -33.3125 TS 55 0 13 279
1940266N29311 1940 68 NA NA NOT_NAMED 1940-09-26 18:00:00 TS 39.7000 -34.2000 55 hurdat_atl main 1704 1634 O_____________ hurdat_atl AL071940 39.7000 -34.2000 TS 55 0 14 276
1940266N29311 1940 68 NA NA NOT_NAMED 1940-09-26 21:00:00 TS 39.7572 -35.1779 main 1627 1564 P_____________ AL071940 39.7572 -35.1779 TS 52 0 15 274
1940266N29311 1940 68 NA NA NOT_NAMED 1940-09-27 00:00:00 TS 39.8000 -36.2000 50 hurdat_atl main 1557 1488 O_____________ hurdat_atl AL071940 39.8000 -36.2000 TS 50 0 16 273
1940266N29311 1940 68 NA NA NOT_NAMED 1940-09-27 03:00:00 TS 39.8495 -37.2151 main 1488 1420 P_____________ AL071940 39.8495 -37.2151 TS 47 0 15 274
1940266N29311 1940 68 NA NA NOT_NAMED 1940-09-27 06:00:00 TS 39.9000 -38.2000 45 hurdat_atl main 1414 1354 O_____________ hurdat_atl AL071940 39.9000 -38.2000 TS 45 0 15 274
1940266N29311 1940 68 NA NA NOT_NAMED 1940-09-27 09:00:00 TS 39.9501 -39.1750 main 1340 1288 P_____________ AL071940 39.9501 -39.1750 TS 42 0 14 274
1940266N29311 1940 68 NA NA NOT_NAMED 1940-09-27 12:00:00 TS 40.0000 -40.0000 40 hurdat_atl main 1288 1249 O_____________ hurdat_atl AL071940 40.0000 -40.0000 TS 40 0 11 275
1940266N29311 1940 68 NA NA NOT_NAMED 1940-09-27 15:00:00 TS 40.0492 -40.5976 main 1249 1216 P_____________ AL071940 40.0492 -40.5976 TS 37 0 8 277
1940266N29311 1940 68 NA NA NOT_NAMED 1940-09-27 18:00:00 TS 40.1000 -41.0000 35 hurdat_atl main 1216 1198 O_____________ hurdat_atl AL071940 40.1000 -41.0000 TS 35 0 5 281
1940266N29311 1940 68 NA NA NOT_NAMED 1940-09-27 21:00:00 TS 40.1497 -41.3026 main 1198 1177 P_____________ AL071940 40.1497 -41.3026 TS 35 0 4 285
1940266N29311 1940 68 NA NA NOT_NAMED 1940-09-28 00:00:00 TS 40.2000 -41.5000 35 hurdat_atl main 1177 1165 O_____________ hurdat_atl AL071940 40.2000 -41.5000 TS 35 0 3 288
1940266N29311 1940 68 NA NA NOT_NAMED 1940-09-28 03:00:00 TS 40.2424 -41.6726 main 1165 1151 P_____________ AL071940 40.2424 -41.6726 TS 32 -1 2 294
1940266N29311 1940 68 NA NA NOT_NAMED 1940-09-28 06:00:00 TS 40.3000 -41.8000 30 hurdat_atl main 1151 1137 O_____________ hurdat_atl AL071940 40.3000 -41.8000 TD 30 -1 2 310
1940266N29311 1940 68 NA NA NOT_NAMED 1940-09-28 09:00:00 TS 40.3900 -41.9049 main 1137 1124 P_____________ AL071940 40.3900 -41.9049 TD 30 -1 3 322
1940266N29311 1940 68 NA NA NOT_NAMED 1940-09-28 12:00:00 ET 40.5000 -42.0000 30 hurdat_atl main 1124 O_____________ hurdat_atl AL071940 40.5000 -42.0000 EX 30 -4 3 327

About IBTrACS Database

This database is a web-friendly format of International Best Track Archive for Climate Stewardship (IBTrACS), a global best track data archive curated by NOAA dating back to 1842.

Updated: 2021-10-08